Time;durP1;ratioP1;P1;durP2;ratioP2;P2;SDS_P1;SDS_P2;PMS_P1;PMS_P2;Temp;Humidity;BMP_temperature;BMP_pressure;BME280_temperature;BME280_humidity;BME280_pressure;Samples;Min_cycle;Max_cycle;Signal;HPM_P1;HPM_P2
2023/08/12 00:02:17;;;;;;;10.98;4.57;;;;;;;21.85;67.80;101794.25;7387243;19;20015;-61
2023/08/12 00:04:45;;;;;;;9.65;4.28;;;;;;;21.87;68.43;101788.69;7389965;19;20010;-63
2023/08/12 00:07:13;;;;;;;10.13;4.13;;;;;;;21.84;68.60;101786.31;7386801;19;20030;-62
2023/08/12 00:09:40;;;;;;;10.88;4.95;;;;;;;21.83;68.68;101795.44;7388363;19;20047;-63
2023/08/12 00:12:07;;;;;;;10.68;5.03;;;;;;;21.73;68.86;101800.09;7387035;19;20030;-61
2023/08/12 00:14:35;;;;;;;12.02;5.15;;;;;;;21.82;68.70;101801.81;7389722;19;20024;-60
2023/08/12 00:17:02;;;;;;;13.38;5.20;;;;;;;21.82;68.57;101799.94;7392979;19;20022;-59
2023/08/12 00:19:30;;;;;;;12.60;4.85;;;;;;;21.82;68.59;101796.41;7396733;19;20060;-63
2023/08/12 00:21:57;;;;;;;10.50;4.55;;;;;;;21.82;68.69;101793.72;7394516;19;20010;-63
2023/08/12 00:24:25;;;;;;;10.68;4.53;;;;;;;21.81;68.76;101789.34;7396829;19;20019;-62
2023/08/12 00:26:52;;;;;;;11.98;4.55;;;;;;;21.75;69.40;101789.97;7396253;19;20364;-62
2023/08/12 00:29:19;;;;;;;10.75;4.80;;;;;;;21.81;68.79;101789.34;7399062;19;20035;-64
2023/08/12 00:31:47;;;;;;;12.00;4.60;;;;;;;21.80;69.05;101793.88;7393861;19;20018;-63
2023/08/12 00:34:14;;;;;;;10.82;4.53;;;;;;;21.79;69.61;101792.22;7394006;19;20018;-64
2023/08/12 00:36:41;;;;;;;11.43;4.45;;;;;;;21.83;69.28;101792.72;7395394;19;20025;-59
2023/08/12 00:39:09;;;;;;;12.30;4.90;;;;;;;21.80;69.94;101796.59;7395934;19;20052;-65
2023/08/12 00:41:36;;;;;;;10.55;4.70;;;;;;;21.82;69.73;101796.41;7392448;19;20430;-61
2023/08/12 00:44:04;;;;;;;10.88;4.53;;;;;;;21.84;69.55;101799.81;7393890;19;20040;-61
2023/08/12 00:46:32;;;;;;;10.88;4.72;;;;;;;21.82;70.03;101794.56;7395765;19;20029;-62
2023/08/12 00:49:00;;;;;;;11.05;4.88;;;;;;;21.85;70.06;101798.78;7396871;19;20014;-68
2023/08/12 00:51:28;;;;;;;9.55;4.20;;;;;;;21.84;70.08;101794.41;7395622;19;20436;-69
2023/08/12 00:53:58;;;;;;;9.23;4.43;;;;;;;21.84;70.50;101789.84;7397195;19;20015;-65
2023/08/12 00:56:30;;;;;;;12.98;4.70;;;;;;;21.84;70.15;101784.47;7394878;19;20011;-60
2023/08/12 00:59:00;;;;;;;12.23;4.65;;;;;;;21.77;70.32;101778.03;7396913;19;20025;-60
2023/08/12 01:01:28;;;;;;;12.23;5.35;;;;;;;21.76;70.49;101781.72;7395737;19;20490;-61
2023/08/12 01:03:56;;;;;;;16.27;5.57;;;;;;;21.79;70.63;101788.66;7395560;19;20022;-60
2023/08/12 01:06:24;;;;;;;11.93;5.15;;;;;;;21.74;71.00;101778.34;7397511;19;20018;-61
2023/08/12 01:08:51;;;;;;;11.10;4.65;;;;;;;21.70;71.10;101779.66;7395176;19;20036;-61
2023/08/12 01:11:33;;;;;;;9.88;4.70;;;;;;;21.73;71.74;101775.81;7393737;19;20007;-60
2023/08/12 01:14:19;;;;;;;11.68;4.78;;;;;;;21.72;72.07;101782.22;7393530;19;20018;-63
2023/08/12 01:16:49;;;;;;;11.70;5.05;;;;;;;21.59;72.00;101793.44;7392863;19;20019;-60
2023/08/12 01:19:30;;;;;;;11.30;5.13;;;;;;;21.64;71.75;101805.44;7395065;19;20025;-62
2023/08/12 01:22:01;;;;;;;11.88;5.47;;;;;;;21.61;72.22;101813.84;7391567;19;20036;-59
2023/08/12 01:24:36;;;;;;;11.60;6.03;;;;;;;21.64;71.96;101805.44;7391166;19;20018;-58
2023/08/12 01:27:05;;;;;;;12.60;5.93;;;;;;;21.58;72.53;101800.66;7388282;19;20390;-60
2023/08/12 01:29:34;;;;;;;16.20;6.10;;;;;;;21.66;72.48;101803.41;7395606;19;20018;-58
2023/08/12 01:32:29;;;;;;;13.43;5.97;;;;;;;21.70;72.17;101793.16;7392383;19;20011;-59
2023/08/12 01:35:20;;;;;;;11.35;5.10;;;;;;;21.71;72.54;101794.00;7394484;19;20019;-59
2023/08/12 01:37:51;;;;;;;12.32;5.30;;;;;;;21.64;72.60;101793.81;7393614;19;20046;-59
2023/08/12 01:40:20;;;;;;;14.30;6.38;;;;;;;21.65;72.37;101796.34;7392751;19;20086;-59
2023/08/12 01:42:48;;;;;;;14.25;6.03;;;;;;;21.68;72.42;101805.97;7393919;19;20039;-59
2023/08/12 01:45:17;;;;;;;17.30;7.57;;;;;;;21.64;72.12;101800.03;7393424;19;20023;-59
2023/08/12 01:47:45;;;;;;;16.02;7.90;;;;;;;21.65;72.26;101795.50;7393536;19;20043;-59
2023/08/12 01:50:12;;;;;;;13.75;6.80;;;;;;;21.69;71.77;101794.16;7393533;19;20019;-59
2023/08/12 01:52:40;;;;;;;14.05;8.13;;;;;;;21.73;72.11;101792.84;7393799;19;20023;-59
2023/08/12 01:55:08;;;;;;;16.58;7.70;;;;;;;21.69;71.98;101787.94;7393354;19;20500;-59
2023/08/12 01:57:35;;;;;;;13.65;8.10;;;;;;;21.64;72.66;101786.56;7392919;19;20351;-59
2023/08/12 02:00:03;;;;;;;18.10;8.15;;;;;;;21.63;72.81;101782.16;7392584;19;20058;-58
2023/08/12 02:02:30;;;;;;;10.63;6.60;;;;;;;21.59;73.78;101782.66;7393410;19;20047;-59
2023/08/12 02:04:58;;;;;;;16.83;7.82;;;;;;;21.56;73.44;101780.25;7394843;19;20024;-58
2023/08/12 02:07:25;;;;;;;15.70;7.25;;;;;;;21.56;73.72;101791.03;7394082;19;20010;-59
2023/08/12 02:09:53;;;;;;;13.15;7.13;;;;;;;21.55;74.04;101784.81;7394288;19;20019;-58
2023/08/12 02:12:20;;;;;;;18.35;9.00;;;;;;;21.54;73.82;101777.75;7391077;19;20018;-59
2023/08/12 02:14:47;;;;;;;16.67;7.80;;;;;;;21.52;73.98;101784.28;7392061;19;20018;-57
2023/08/12 02:17:15;;;;;;;12.70;6.80;;;;;;;21.44;74.57;101785.06;7392347;19;20021;-57
2023/08/12 02:19:42;;;;;;;15.50;8.00;;;;;;;21.41;74.39;101769.25;7393046;19;20011;-58
2023/08/12 02:22:10;;;;;;;15.00;7.38;;;;;;;21.46;74.59;101772.31;7390922;19;20018;-58
2023/08/12 02:24:37;;;;;;;14.73;8.00;;;;;;;21.50;74.77;101765.59;7391872;19;20026;-61
2023/08/12 02:27:05;;;;;;;12.85;8.43;;;;;;;21.44;74.89;101755.44;7391785;19;20018;-57
2023/08/12 02:29:32;;;;;;;15.13;7.57;;;;;;;21.45;74.28;101750.91;7393780;19;20022;-57
2023/08/12 02:32:00;;;;;;;17.42;9.20;;;;;;;21.48;74.55;101750.56;7389685;19;20026;-57
2023/08/12 02:34:28;;;;;;;16.30;8.52;;;;;;;21.45;74.75;101754.44;7392537;19;20014;-57
2023/08/12 02:36:55;;;;;;;14.30;7.75;;;;;;;21.46;74.65;101748.03;7391559;19;20018;-57
2023/08/12 02:39:23;;;;;;;15.52;8.43;;;;;;;21.44;74.97;101733.03;7392480;19;20010;-57
2023/08/12 02:41:50;;;;;;;14.18;8.18;;;;;;;21.44;74.96;101743.81;7390533;19;20045;-58
2023/08/12 02:44:17;;;;;;;16.58;7.22;;;;;;;21.34;75.45;101734.00;7390456;19;20014;-59
2023/08/12 02:46:45;;;;;;;14.48;7.25;;;;;;;21.40;75.73;101737.88;7390816;19;20106;-59
2023/08/12 02:49:12;;;;;;;16.58;9.02;;;;;;;21.41;75.66;101743.13;7391907;19;20022;-59
2023/08/12 02:51:39;;;;;;;16.17;7.57;;;;;;;21.41;75.88;101728.81;7391124;19;20086;-59
2023/08/12 02:54:07;;;;;;;16.80;7.93;;;;;;;21.39;75.99;101714.66;7390023;19;20022;-59
2023/08/12 02:56:34;;;;;;;16.50;8.85;;;;;;;21.35;75.91;101716.81;7391249;19;20022;-59
2023/08/12 02:59:02;;;;;;;14.98;8.73;;;;;;;21.29;76.22;101709.34;7391473;19;20020;-58
2023/08/12 03:01:29;;;;;;;17.88;10.98;;;;;;;21.23;76.94;101719.91;7390388;19;20015;-58
2023/08/12 03:03:57;;;;;;;19.88;10.30;;;;;;;21.14;77.46;101717.19;7389293;19;20056;-58
2023/08/12 03:06:24;;;;;;;20.33;10.25;;;;;;;21.23;76.85;101714.53;7389116;19;20014;-58
2023/08/12 03:08:52;;;;;;;18.70;10.77;;;;;;;21.26;77.08;101716.91;7391798;19;20014;-57
2023/08/12 03:11:19;;;;;;;16.60;9.95;;;;;;;21.25;77.23;101715.19;7389617;19;20026;-58
2023/08/12 03:13:46;;;;;;;19.38;10.95;;;;;;;21.22;77.64;101707.47;7389947;19;20014;-59
2023/08/12 03:16:14;;;;;;;17.40;10.38;;;;;;;21.20;77.46;101707.59;7389846;19;20018;-59
2023/08/12 03:18:42;;;;;;;18.23;11.32;;;;;;;21.22;77.67;101713.69;7389905;19;20039;-58
2023/08/12 03:21:10;;;;;;;19.20;10.70;;;;;;;21.19;77.91;101697.84;7389429;19;20515;-59
2023/08/12 03:23:38;;;;;;;16.33;10.57;;;;;;;21.22;77.76;101700.22;7390847;19;20043;-59
2023/08/12 03:26:05;;;;;;;18.80;10.38;;;;;;;21.22;77.75;101704.78;7390542;19;20044;-59
2023/08/12 03:28:32;;;;;;;16.63;10.50;;;;;;;21.21;77.45;101698.50;7391354;19;20034;-58
2023/08/12 03:31:00;;;;;;;18.73;10.65;;;;;;;21.18;77.49;101697.00;7389644;19;20027;-58
2023/08/12 03:33:28;;;;;;;17.40;10.93;;;;;;;21.13;77.98;101702.00;7388941;19;20015;-58
2023/08/12 03:35:55;;;;;;;18.67;10.38;;;;;;;21.11;78.70;101700.50;7389855;19;20011;-58
2023/08/12 03:38:22;;;;;;;19.33;11.40;;;;;;;21.07;78.10;101694.56;7388983;19;20500;-58
2023/08/12 03:40:50;;;;;;;19.95;10.73;;;;;;;21.13;77.99;101693.06;7390178;19;20341;-58
2023/08/12 03:43:17;;;;;;;20.55;10.82;;;;;;;21.08;78.20;101684.63;7390400;19;20390;-58
2023/08/12 03:45:45;;;;;;;19.10;12.20;;;;;;;21.02;79.04;101688.78;7389921;19;20047;-58
2023/08/12 03:48:15;;;;;;;19.17;10.75;;;;;;;20.95;79.67;101693.16;7389753;19;20019;-57
2023/08/12 03:50:45;;;;;;;17.10;10.70;;;;;;;20.91;79.39;101695.31;7389928;19;20019;-57
2023/08/12 03:53:12;;;;;;;21.52;11.98;;;;;;;20.97;79.85;101701.06;7397531;19;20440;-57
2023/08/12 03:55:41;;;;;;;16.35;11.10;;;;;;;21.01;79.57;101699.75;7396956;19;20031;-57
2023/08/12 03:58:08;;;;;;;18.15;10.70;;;;;;;;;;7396285;19;20019;-57
2023/08/12 04:00:40;;;;;;;19.73;11.95;;;;;;;21.04;79.72;101688.66;7396970;19;20030;-58
2023/08/12 04:03:08;;;;;;;19.40;11.50;;;;;;;20.89;79.83;101691.91;7396261;19;20022;-58
2023/08/12 04:05:36;;;;;;;18.23;11.00;;;;;;;20.90;80.43;101692.75;7393849;19;20018;-57
2023/08/12 04:08:03;;;;;;;16.38;10.30;;;;;;;20.98;80.86;101694.66;7397589;19;20051;-58
2023/08/12 04:10:31;;;;;;;17.00;11.40;;;;;;;21.01;80.11;101688.97;7395175;19;20022;-60
2023/08/12 04:12:58;;;;;;;20.92;12.45;;;;;;;20.98;80.33;101698.19;7397258;19;20015;-58
2023/08/12 04:15:26;;;;;;;16.75;10.50;;;;;;;21.02;80.56;101699.56;7395152;19;20019;-58
2023/08/12 04:17:53;;;;;;;19.63;11.50;;;;;;;;;;7396735;19;20010;-58
2023/08/12 04:20:22;;;;;;;16.77;11.35;;;;;;;;;;7396435;19;20019;-58
2023/08/12 04:22:49;;;;;;;21.42;11.38;;;;;;;21.02;80.93;101690.66;7395820;19;20085;-58
2023/08/12 04:25:17;;;;;;;16.17;11.20;;;;;;;21.04;81.18;101696.72;7394027;19;20022;-57
2023/08/12 04:27:44;;;;;;;22.27;11.02;;;;;;;;;;7395823;19;20046;-58
2023/08/12 04:30:12;;;;;;;20.13;12.10;;;;;;;21.07;81.16;101693.72;7400072;19;20031;-58
2023/08/12 04:32:39;;;;;;;17.73;10.77;;;;;;;20.98;81.66;101697.34;7396487;19;20031;-59
2023/08/12 04:35:08;;;;;;;20.50;13.02;;;;;;;20.95;81.63;101701.22;7396768;19;20019;-59
2023/08/12 04:37:36;;;;;;;19.02;12.35;;;;;;;20.96;81.40;101689.44;7395260;19;20014;-58
2023/08/12 04:40:05;;;;;;;19.58;11.27;;;;;;;21.02;81.40;101696.03;7396066;19;20029;-59
2023/08/12 04:42:32;;;;;;;18.25;12.38;;;;;;;21.01;81.49;101687.13;7394146;19;20018;-58
2023/08/12 04:44:59;;;;;;;21.33;14.25;;;;;;;20.85;82.49;101695.94;7394525;19;20018;-58
2023/08/12 04:47:27;;;;;;;22.05;14.35;;;;;;;20.73;82.97;101697.19;7394909;19;20492;-58
2023/08/12 04:49:56;;;;;;;23.90;14.40;;;;;;;20.74;83.21;101698.03;7396008;19;20018;-58
2023/08/12 04:52:23;;;;;;;19.85;12.70;;;;;;;20.83;82.84;101697.91;7395546;19;20022;-57
2023/08/12 04:54:53;;;;;;;18.20;11.80;;;;;;;20.95;82.80;101695.84;7395948;19;20056;-58
2023/08/12 04:57:20;;;;;;;19.25;12.02;;;;;;;20.93;83.11;101698.69;7395047;19;20499;-57
2023/08/12 04:59:48;;;;;;;19.60;12.00;;;;;;;20.94;82.63;101699.50;7393383;19;20610;-59
2023/08/12 05:02:15;;;;;;;20.08;12.18;;;;;;;20.98;82.45;101698.19;7392898;19;20022;-58
2023/08/12 05:04:46;;;;;;;18.20;11.82;;;;;;;21.01;82.71;101697.88;7394597;19;20082;-59
2023/08/12 05:07:14;;;;;;;18.70;12.05;;;;;;;20.98;82.97;101705.44;7392984;19;20029;-59
2023/08/12 05:09:43;;;;;;;16.02;11.38;;;;;;;20.92;82.98;101702.38;7395234;19;20040;-59
2023/08/12 05:12:11;;;;;;;20.25;12.75;;;;;;;20.97;82.56;101703.75;7392898;19;20039;-58
2023/08/12 05:14:40;;;;;;;18.25;12.68;;;;;;;21.02;82.61;101702.25;7395158;19;20015;-58
2023/08/12 05:17:07;;;;;;;17.77;11.95;;;;;;;21.04;82.92;101694.88;7394870;19;20043;-58
2023/08/12 05:19:35;;;;;;;19.00;12.05;;;;;;;21.07;82.16;101696.44;7394920;19;20177;-58
2023/08/12 05:22:02;;;;;;;18.55;11.80;;;;;;;21.08;82.44;101695.41;7392985;19;20018;-58
2023/08/12 05:24:30;;;;;;;17.65;11.85;;;;;;;21.05;82.36;101688.47;7394150;19;20010;-58
2023/08/12 05:26:57;;;;;;;16.52;11.55;;;;;;;21.08;82.26;101696.25;7393389;19;20018;-59
2023/08/12 05:29:24;;;;;;;18.55;12.60;;;;;;;21.09;82.51;101689.00;7397033;19;20018;-59
2023/08/12 05:31:52;;;;;;;18.80;12.77;;;;;;;21.08;83.09;101688.16;7392541;19;20018;-58
2023/08/12 05:34:19;;;;;;;18.33;12.38;;;;;;;21.03;82.88;101684.28;7394009;19;20014;-58
2023/08/12 05:36:46;;;;;;;19.13;12.77;;;;;;;21.04;82.54;101684.09;7393447;19;20035;-58
2023/08/12 05:39:15;;;;;;;18.83;12.52;;;;;;;;;;7394204;19;20007;-59
2023/08/12 05:41:42;;;;;;;18.02;11.73;;;;;;;21.00;83.15;101679.19;7392691;19;20054;-58
2023/08/12 05:44:09;;;;;;;17.75;11.32;;;;;;;21.01;82.93;101670.13;7393979;19;20044;-58
2023/08/12 05:46:37;;;;;;;18.60;11.10;;;;;;;21.01;82.98;101670.13;7393580;19;20040;-58
2023/08/12 05:49:04;;;;;;;20.48;12.00;;;;;;;21.01;82.78;101673.66;7393526;19;20015;-59
2023/08/12 05:51:32;;;;;;;17.50;10.60;;;;;;;20.99;83.05;101664.91;7392813;19;20129;-58
2023/08/12 05:53:59;;;;;;;16.67;10.88;;;;;;;21.00;83.48;101677.34;7393999;19;20022;-58
2023/08/12 05:56:26;;;;;;;16.00;9.98;;;;;;;21.02;83.33;101663.72;7392841;19;20014;-59
2023/08/12 05:58:54;;;;;;;16.45;10.15;;;;;;;21.04;83.38;101657.19;7393612;19;20018;-59
2023/08/12 06:01:21;;;;;;;15.65;10.70;;;;;;;21.08;83.09;101666.63;7390877;19;20018;-59
2023/08/12 06:03:49;;;;;;;17.60;9.60;;;;;;;21.19;83.25;101657.44;7392235;19;20015;-59
2023/08/12 06:06:16;;;;;;;15.10;9.43;;;;;;;21.26;82.71;101654.94;7389234;19;20035;-59
2023/08/12 06:08:44;;;;;;;13.20;8.57;;;;;;;21.29;82.33;101651.91;7392785;19;20036;-61
2023/08/12 06:11:11;;;;;;;15.38;9.50;;;;;;;21.31;81.92;101641.81;7392385;19;20235;-57
2023/08/12 06:13:38;;;;;;;14.10;8.68;;;;;;;21.31;82.64;101649.91;7392268;19;20042;-58
2023/08/12 06:16:06;;;;;;;13.88;8.05;;;;;;;21.30;82.56;101659.00;7392164;19;20130;-58
2023/08/12 06:18:33;;;;;;;15.13;8.57;;;;;;;21.36;82.38;101636.81;7391254;19;20024;-58
2023/08/12 06:21:00;;;;;;;13.63;8.45;;;;;;;21.46;81.74;101642.09;7391849;19;20510;-59
2023/08/12 06:23:29;;;;;;;12.38;7.90;;;;;;;21.46;82.19;101642.09;7393035;19;20027;-58
2023/08/12 06:25:57;;;;;;;14.93;8.75;;;;;;;21.48;81.54;101635.50;7390208;19;20015;-60
2023/08/12 06:28:24;;;;;;;12.95;8.00;;;;;;;21.49;82.05;101639.06;7393440;19;20032;-58
2023/08/12 06:30:52;;;;;;;11.85;7.50;;;;;;;21.47;81.96;101650.00;7391963;19;20262;-58
2023/08/12 06:33:19;;;;;;;12.43;6.65;;;;;;;21.47;81.25;101649.16;7391087;19;20018;-59
2023/08/12 06:35:47;;;;;;;12.05;7.18;;;;;;;21.44;81.73;101646.78;7392047;19;20035;-58
2023/08/12 06:38:17;;;;;;;11.32;6.55;;;;;;;21.44;82.01;101642.22;7390569;19;20025;-59
2023/08/12 06:40:44;;;;;;;8.90;5.68;;;;;;;21.48;81.29;101642.75;7391129;19;20015;-59
2023/08/12 06:43:12;;;;;;;10.43;5.55;;;;;;;21.43;81.17;101648.63;7391910;19;20018;-58
2023/08/12 06:45:39;;;;;;;11.90;6.00;;;;;;;21.45;81.09;101645.78;7390129;19;20086;-59
2023/08/12 06:48:06;;;;;;;11.02;6.10;;;;;;;21.46;81.12;101637.53;7390813;19;20030;-59
2023/08/12 06:50:34;;;;;;;9.70;5.88;;;;;;;21.54;80.97;101636.72;7391692;19;20029;-58
2023/08/12 06:53:02;;;;;;;10.18;5.72;;;;;;;21.51;80.99;101639.75;7391872;19;20044;-58
2023/08/12 06:55:29;;;;;;;10.57;5.63;;;;;;;21.45;81.20;101643.94;7390734;19;20021;-59
2023/08/12 06:57:56;;;;;;;10.05;5.10;;;;;;;21.42;81.35;101644.25;7390209;19;20053;-58
2023/08/12 07:00:24;;;;;;;10.00;6.32;;;;;;;21.39;80.91;101645.41;7391014;19;20027;-58
2023/08/12 07:02:51;;;;;;;10.05;6.25;;;;;;;21.35;81.16;101649.44;7391464;19;20010;-59
2023/08/12 07:05:19;;;;;;;9.73;6.22;;;;;;;21.34;81.15;101637.00;7388971;19;20029;-59
2023/08/12 07:07:46;;;;;;;12.38;6.43;;;;;;;21.41;81.26;101642.59;7390904;19;20035;-58
2023/08/12 07:10:13;;;;;;;11.75;6.70;;;;;;;21.41;81.74;101642.59;7391065;19;20044;-59
2023/08/12 07:12:41;;;;;;;11.75;6.82;;;;;;;21.44;81.34;101644.94;7391357;19;20018;-59
2023/08/12 07:15:10;;;;;;;12.52;7.50;;;;;;;21.44;80.99;101639.53;7391640;19;20022;-59
2023/08/12 07:17:38;;;;;;;13.15;7.47;;;;;;;21.44;81.20;101642.22;7390429;19;20011;-58
2023/08/12 07:20:06;;;;;;;12.32;7.78;;;;;;;21.46;81.51;101636.69;7391109;19;20043;-59
2023/08/12 07:22:33;;;;;;;13.52;8.65;;;;;;;21.45;81.45;101633.16;7389736;19;20034;-59
2023/08/12 07:25:01;;;;;;;14.65;8.98;;;;;;;21.51;81.45;101632.50;7390642;19;20018;-59
2023/08/12 07:27:29;;;;;;;11.75;8.25;;;;;;;21.56;80.88;101624.78;7396291;19;20037;-59
2023/08/12 07:29:56;;;;;;;14.68;8.63;;;;;;;21.63;80.40;101623.09;7402148;19;20014;-58
2023/08/12 07:32:24;;;;;;;12.52;7.75;;;;;;;21.70;80.84;101619.75;7397100;19;20022;-59
2023/08/12 07:34:51;;;;;;;12.57;7.95;;;;;;;21.74;81.02;101616.56;7398432;19;20098;-58
2023/08/12 07:37:18;;;;;;;12.82;8.95;;;;;;;21.82;80.72;101607.63;7397293;19;20491;-59
2023/08/12 07:39:46;;;;;;;14.45;9.70;;;;;;;21.88;80.83;101605.13;7398646;19;20026;-58
2023/08/12 07:42:13;;;;;;;13.10;8.30;;;;;;;21.81;80.93;101606.78;7396002;19;20039;-58
2023/08/12 07:44:40;;;;;;;13.80;8.38;;;;;;;21.82;81.08;101603.06;7397410;19;20018;-58
2023/08/12 07:47:09;;;;;;;13.60;8.45;;;;;;;21.79;81.34;101602.59;7397163;19;20089;-58
2023/08/12 07:49:36;;;;;;;12.95;8.05;;;;;;;21.85;80.92;101602.75;7396418;19;20491;-58
2023/08/12 07:52:04;;;;;;;14.10;8.27;;;;;;;21.93;80.80;101596.53;7395322;19;20040;-57
2023/08/12 07:54:31;;;;;;;14.40;9.65;;;;;;;21.95;81.03;101602.63;7395741;19;20010;-59
2023/08/12 07:56:58;;;;;;;14.02;8.85;;;;;;;21.93;80.95;101593.00;7396365;19;20018;-59
2023/08/12 07:59:26;;;;;;;14.77;10.00;;;;;;;21.97;80.68;101597.88;7398336;19;20493;-60
2023/08/12 08:01:53;;;;;;;14.10;9.63;;;;;;;21.99;81.44;101603.97;7394696;19;20495;-59
2023/08/12 08:04:20;;;;;;;14.50;8.75;;;;;;;22.09;80.87;101593.88;7397447;19;20108;-58
2023/08/12 08:06:48;;;;;;;13.30;8.63;;;;;;;22.16;80.48;101587.81;7394436;19;20019;-59
2023/08/12 08:09:17;;;;;;;14.02;8.73;;;;;;;22.13;80.58;101595.25;7397408;19;20495;-61
2023/08/12 08:11:45;;;;;;;14.10;8.30;;;;;;;22.08;80.24;101594.00;7394981;19;20054;-59
2023/08/12 08:14:12;;;;;;;15.65;8.15;;;;;;;22.05;79.86;101613.22;7396507;19;20018;-59
2023/08/12 08:16:41;;;;;;;12.48;7.57;;;;;;;21.94;80.26;101611.72;7396297;19;20018;-60
2023/08/12 08:19:09;;;;;;;11.13;7.47;;;;;;;21.93;79.76;101603.78;7395670;19;20015;-60
2023/08/12 08:21:39;;;;;;;11.68;6.97;;;;;;;21.91;79.68;101601.25;7394489;19;20021;-60
2023/08/12 08:24:08;;;;;;;11.32;6.75;;;;;;;21.94;79.43;101606.31;7396711;19;20014;-58
2023/08/12 08:26:35;;;;;;;12.07;7.70;;;;;;;21.98;79.74;101602.28;7393817;19;20019;-57
2023/08/12 08:29:03;;;;;;;12.35;7.43;;;;;;;22.02;80.02;101603.63;7397736;19;20043;-61
2023/08/12 08:31:30;;;;;;;12.27;6.78;;;;;;;21.96;79.78;101598.91;7395191;19;20018;-61
2023/08/12 08:33:58;;;;;;;10.07;6.60;;;;;;;21.94;79.83;101600.06;7396297;19;20018;-61
2023/08/12 08:36:25;;;;;;;11.90;7.15;;;;;;;21.87;79.59;101600.75;7395316;19;20488;-59
2023/08/12 08:38:53;;;;;;;12.63;8.10;;;;;;;21.75;80.17;101603.91;7394472;19;20508;-59
2023/08/12 08:41:21;;;;;;;10.82;6.78;;;;;;;21.72;80.50;101598.88;7394460;19;20018;-59
2023/08/12 08:43:50;;;;;;;12.68;7.07;;;;;;;21.75;80.34;101596.69;7395450;19;20022;-60
2023/08/12 08:46:17;;;;;;;12.25;7.50;;;;;;;21.76;80.54;101594.84;7393508;19;20011;-61
2023/08/12 08:48:46;;;;;;;11.45;7.35;;;;;;;21.79;80.40;101602.59;7394579;19;20021;-61
2023/08/12 08:51:14;;;;;;;12.25;7.47;;;;;;;21.81;80.54;101596.00;7394603;19;20018;-58
2023/08/12 08:53:41;;;;;;;14.02;7.82;;;;;;;21.84;80.49;101605.63;7395485;19;20014;-61
2023/08/12 08:56:11;;;;;;;12.02;7.95;;;;;;;21.84;81.07;101600.25;7393948;19;20533;-62
2023/08/12 08:58:42;;;;;;;13.57;7.78;;;;;;;21.80;81.05;101601.59;7395846;19;20023;-58
2023/08/12 09:01:10;;;;;;;12.70;8.32;;;;;;;21.83;81.24;101595.84;7393860;19;20047;-59
2023/08/12 09:03:39;;;;;;;14.63;9.40;;;;;;;21.79;81.61;101608.00;7396507;19;20019;-57
2023/08/12 09:06:08;;;;;;;15.68;9.75;;;;;;;21.86;81.30;101601.78;7395423;19;20021;-59
2023/08/12 09:08:38;;;;;;;14.43;10.02;;;;;;;21.94;80.95;101602.75;7396572;19;20090;-60
2023/08/12 09:11:06;;;;;;;15.52;9.95;;;;;;;22.02;81.16;101595.53;7397429;19;20018;-58
2023/08/12 09:13:33;;;;;;;15.15;10.50;;;;;;;22.08;81.28;101596.72;7397554;19;20033;-59
2023/08/12 09:16:00;;;;;;;17.42;11.50;;;;;;;22.05;81.13;101603.28;7396743;19;20010;-62
2023/08/12 09:18:29;;;;;;;14.25;10.00;;;;;;;22.01;80.44;101591.13;7397895;19;20028;-59
2023/08/12 09:20:57;;;;;;;15.00;11.27;;;;;;;21.96;81.31;101590.81;7395232;19;20019;-60
2023/08/12 09:23:26;;;;;;;13.73;9.48;;;;;;;21.97;81.40;101594.34;7397903;19;20018;-59
2023/08/12 09:25:53;;;;;;;14.90;10.85;;;;;;;21.91;80.85;101595.88;7395649;19;20032;-58
2023/08/12 09:28:21;;;;;;;15.05;10.27;;;;;;;21.90;81.27;101592.34;7396765;19;20031;-58
2023/08/12 09:30:52;;;;;;;17.15;11.57;;;;;;;21.88;81.10;101596.19;7396162;19;20026;-59
2023/08/12 09:33:26;;;;;;;15.52;10.85;;;;;;;21.90;80.80;101591.47;7396929;19;20023;-60
2023/08/12 09:35:56;;;;;;;17.35;11.43;;;;;;;21.81;81.20;101596.00;7396701;19;20031;-60
2023/08/12 09:38:24;;;;;;;14.68;10.32;;;;;;;21.80;81.79;101588.09;7397024;19;20022;-58
2023/08/12 09:40:53;;;;;;;16.20;12.10;;;;;;;21.79;81.72;101579.16;7394814;19;20022;-59
2023/08/12 09:43:23;;;;;;;15.68;11.73;;;;;;;21.81;82.34;101573.59;7393428;19;20018;-58
2023/08/12 09:45:56;;;;;;;16.83;12.13;;;;;;;21.78;82.58;101569.38;7393848;19;20015;-59
2023/08/12 09:48:25;;;;;;;16.42;11.55;;;;;;;21.74;83.05;101570.72;7395897;19;20014;-59
2023/08/12 09:50:53;;;;;;;15.48;11.65;;;;;;;21.69;83.34;101567.69;7392677;19;20022;-58
2023/08/12 09:53:24;;;;;;;16.85;12.45;;;;;;;21.66;83.63;101557.22;7396511;19;20370;-59
2023/08/12 09:55:52;;;;;;;15.02;12.05;;;;;;;21.62;84.18;101547.78;7390656;19;20018;-58
2023/08/12 09:58:24;;;;;;;17.60;11.90;;;;;;;21.58;84.00;101541.88;7393096;19;20492;-58
2023/08/12 10:00:52;;;;;;;17.92;13.63;;;;;;;21.60;84.10;101544.44;7392452;19;20026;-58
2023/08/12 10:03:20;;;;;;;20.42;17.25;;;;;;;21.64;84.20;101538.53;7393051;19;20014;-58
2023/08/12 10:05:47;;;;;;;22.27;15.75;;;;;;;21.63;84.92;101535.97;7390099;19;20018;-58
2023/08/12 10:08:16;;;;;;;19.45;15.48;;;;;;;21.64;84.44;101535.84;7393116;19;20015;-59
2023/08/12 10:10:43;;;;;;;21.63;16.30;;;;;;;21.59;84.78;101527.38;7393213;19;20015;-59
2023/08/12 10:13:14;;;;;;;22.00;15.52;;;;;;;21.59;85.05;101522.00;7392929;19;20093;-58
2023/08/12 10:15:42;;;;;;;21.42;16.17;;;;;;;21.59;85.14;101526.53;7392057;19;20026;-58
2023/08/12 10:18:10;;;;;;;25.33;17.20;;;;;;;21.58;85.38;101520.31;7392554;19;20095;-58
2023/08/12 10:20:43;;;;;;;20.50;14.80;;;;;;;21.59;85.38;101522.00;7389528;19;20051;-57
2023/08/12 10:23:15;;;;;;;19.83;14.15;;;;;;;21.67;85.16;101521.16;7391902;19;20018;-58
2023/08/12 10:25:44;;;;;;;19.17;16.00;;;;;;;21.62;85.01;101523.53;7391335;19;20019;-57
2023/08/12 10:28:12;;;;;;;19.55;15.20;;;;;;;21.60;85.41;101514.78;7391957;19;20035;-58
2023/08/12 10:30:41;;;;;;;19.95;14.30;;;;;;;21.64;85.25;101525.06;7392356;19;20015;-59
2023/08/12 10:33:10;;;;;;;18.77;15.02;;;;;;;21.63;85.66;101533.28;7390347;19;20019;-59
2023/08/12 10:35:45;;;;;;;21.45;14.45;;;;;;;21.68;85.47;101522.88;7391025;19;20022;-59
2023/08/12 10:38:20;;;;;;;22.77;16.10;;;;;;;21.63;85.69;101514.41;7393077;19;20557;-59
2023/08/12 10:40:48;;;;;;;21.85;17.48;;;;;;;21.57;85.64;101513.25;7391163;19;20019;-57
2023/08/12 10:43:15;;;;;;;21.15;16.75;;;;;;;21.60;85.40;101507.53;7390215;19;20018;-59
2023/08/12 10:45:53;;;;;;;19.70;15.95;;;;;;;21.60;85.66;101485.13;7389245;19;20034;-59
2023/08/12 10:48:24;;;;;;;19.38;15.43;;;;;;;21.60;85.79;101502.13;7392238;19;20022;-59
2023/08/12 10:50:55;;;;;;;21.30;17.27;;;;;;;21.61;86.07;101489.50;7389329;19;20027;-57
2023/08/12 10:53:33;;;;;;;21.70;16.33;;;;;;;21.65;85.66;101467.41;7392365;19;20014;-59
2023/08/12 10:56:03;;;;;;;21.02;17.70;;;;;;;21.83;84.93;101482.59;7390751;19;20011;-59
2023/08/12 10:58:40;;;;;;;20.25;15.32;;;;;;;22.02;84.84;101489.50;7390138;19;20010;-60
2023/08/12 11:01:13;;;;;;;19.70;14.68;;;;;;;22.11;84.31;101497.41;7390393;19;20022;-59
2023/08/12 11:03:43;;;;;;;20.60;15.45;;;;;;;22.13;84.34;101492.72;7391603;19;20026;-59
2023/08/12 11:06:11;;;;;;;16.88;14.48;;;;;;;22.15;84.40;101497.94;7390339;19;20026;-60
2023/08/12 11:08:53;;;;;;;19.20;15.00;;;;;;;22.16;84.18;101496.06;7391064;19;20022;-58
2023/08/12 11:11:24;;;;;;;16.50;14.03;;;;;;;22.15;84.27;101497.94;7389944;19;20032;-58
2023/08/12 11:13:58;;;;;;;19.70;15.95;;;;;;;22.16;83.92;101493.38;7390677;19;20042;-59
2023/08/12 11:16:35;;;;;;;20.25;14.82;;;;;;;22.10;84.13;101490.31;7390581;19;20412;-59
2023/08/12 11:19:03;;;;;;;18.95;14.57;;;;;;;22.05;84.79;101489.97;7388667;19;20025;-60
2023/08/12 11:21:31;;;;;;;20.30;15.52;;;;;;;22.12;84.31;101487.44;7388263;19;20052;-57
2023/08/12 11:23:59;;;;;;;19.77;15.68;;;;;;;22.19;84.14;101495.75;7390388;19;20033;-58